sensor_id;sensor_type;location;lat;lon;timestamp;temperature;humidity
73586;DHT22;61865;50.232;18.614;2022-07-06T00:00:34;15.80;99.90
73586;DHT22;61865;50.232;18.614;2022-07-06T00:02:57;15.80;99.90
73586;DHT22;61865;50.232;18.614;2022-07-06T00:05:19;15.80;99.90
73586;DHT22;61865;50.232;18.614;2022-07-06T00:07:41;15.80;99.90
73586;DHT22;61865;50.232;18.614;2022-07-06T00:10:04;15.80;99.90
73586;DHT22;61865;50.232;18.614;2022-07-06T00:12:26;15.70;99.90
73586;DHT22;61865;50.232;18.614;2022-07-06T00:14:47;15.70;99.90
73586;DHT22;61865;50.232;18.614;2022-07-06T00:17:09;15.80;99.90
73586;DHT22;61865;50.232;18.614;2022-07-06T00:19:33;15.70;99.90
73586;DHT22;61865;50.232;18.614;2022-07-06T00:21:54;15.70;99.90
73586;DHT22;61865;50.232;18.614;2022-07-06T00:24:16;15.70;99.90
73586;DHT22;61865;50.232;18.614;2022-07-06T00:26:39;15.70;99.90
73586;DHT22;61865;50.232;18.614;2022-07-06T00:29:01;15.70;99.90
73586;DHT22;61865;50.232;18.614;2022-07-06T00:31:23;15.70;99.90
73586;DHT22;61865;50.232;18.614;2022-07-06T00:33:45;15.70;99.90
73586;DHT22;61865;50.232;18.614;2022-07-06T00:36:08;15.70;99.90
73586;DHT22;61865;50.232;18.614;2022-07-06T00:38:30;15.70;99.90
73586;DHT22;61865;50.232;18.614;2022-07-06T00:40:52;15.70;99.90
73586;DHT22;61865;50.232;18.614;2022-07-06T00:43:14;15.70;99.90
73586;DHT22;61865;50.232;18.614;2022-07-06T00:45:36;15.70;99.90
73586;DHT22;61865;50.232;18.614;2022-07-06T00:47:58;15.60;99.90
73586;DHT22;61865;50.232;18.614;2022-07-06T00:50:21;15.60;99.90
73586;DHT22;61865;50.232;18.614;2022-07-06T00:52:45;15.50;99.90
73586;DHT22;61865;50.232;18.614;2022-07-06T00:55:08;15.50;99.90
73586;DHT22;61865;50.232;18.614;2022-07-06T00:57:30;15.50;99.90
73586;DHT22;61865;50.232;18.614;2022-07-06T00:59:52;15.40;99.90
73586;DHT22;61865;50.232;18.614;2022-07-06T01:02:14;15.30;99.90
73586;DHT22;61865;50.232;18.614;2022-07-06T01:04:36;15.30;99.90
73586;DHT22;61865;50.232;18.614;2022-07-06T01:06:58;15.30;99.90
73586;DHT22;61865;50.232;18.614;2022-07-06T01:09:21;15.30;99.90
73586;DHT22;61865;50.232;18.614;2022-07-06T01:11:43;15.20;99.90
73586;DHT22;61865;50.232;18.614;2022-07-06T01:14:06;15.20;99.90
73586;DHT22;61865;50.232;18.614;2022-07-06T01:16:28;15.10;99.90
73586;DHT22;61865;50.232;18.614;2022-07-06T01:18:50;15.10;99.90
73586;DHT22;61865;50.232;18.614;2022-07-06T01:21:14;15.10;99.90
73586;DHT22;61865;50.232;18.614;2022-07-06T01:23:40;15.20;99.90
73586;DHT22;61865;50.232;18.614;2022-07-06T01:26:02;15.10;99.90
73586;DHT22;61865;50.232;18.614;2022-07-06T01:28:24;15.00;99.90
73586;DHT22;61865;50.232;18.614;2022-07-06T01:30:46;15.00;99.90
73586;DHT22;61865;50.232;18.614;2022-07-06T01:33:09;14.90;99.90
73586;DHT22;61865;50.232;18.614;2022-07-06T01:35:31;14.80;99.90
73586;DHT22;61865;50.232;18.614;2022-07-06T01:37:57;14.80;99.90
73586;DHT22;61865;50.232;18.614;2022-07-06T01:40:18;14.80;99.90
73586;DHT22;61865;50.232;18.614;2022-07-06T01:42:40;14.70;99.90
73586;DHT22;61865;50.232;18.614;2022-07-06T01:45:03;14.70;99.90
73586;DHT22;61865;50.232;18.614;2022-07-06T01:47:25;14.70;99.90
73586;DHT22;61865;50.232;18.614;2022-07-06T01:49:48;14.60;99.90
73586;DHT22;61865;50.232;18.614;2022-07-06T01:52:10;14.60;99.90
73586;DHT22;61865;50.232;18.614;2022-07-06T01:54:33;14.70;99.90
73586;DHT22;61865;50.232;18.614;2022-07-06T01:56:55;14.80;99.90
73586;DHT22;61865;50.232;18.614;2022-07-06T01:59:17;14.80;99.90
73586;DHT22;61865;50.232;18.614;2022-07-06T02:01:39;14.90;99.90
73586;DHT22;61865;50.232;18.614;2022-07-06T02:04:01;15.00;99.90
73586;DHT22;61865;50.232;18.614;2022-07-06T02:06:22;15.00;99.90
73586;DHT22;61865;50.232;18.614;2022-07-06T02:08:44;15.00;99.90
73586;DHT22;61865;50.232;18.614;2022-07-06T02:11:08;15.00;99.90
73586;DHT22;61865;50.232;18.614;2022-07-06T02:13:31;15.00;99.90
73586;DHT22;61865;50.232;18.614;2022-07-06T02:15:52;15.00;99.90
73586;DHT22;61865;50.232;18.614;2022-07-06T02:18:14;14.90;99.90
73586;DHT22;61865;50.232;18.614;2022-07-06T02:20:36;14.90;99.90
73586;DHT22;61865;50.232;18.614;2022-07-06T02:22:58;14.90;99.90
73586;DHT22;61865;50.232;18.614;2022-07-06T02:25:20;14.90;99.90
73586;DHT22;61865;50.232;18.614;2022-07-06T02:27:43;14.90;99.90
73586;DHT22;61865;50.232;18.614;2022-07-06T02:30:06;14.90;99.90
73586;DHT22;61865;50.232;18.614;2022-07-06T02:32:28;14.90;99.90
73586;DHT22;61865;50.232;18.614;2022-07-06T02:34:50;15.00;99.90
73586;DHT22;61865;50.232;18.614;2022-07-06T02:37:13;15.10;99.90
73586;DHT22;61865;50.232;18.614;2022-07-06T02:39:35;15.00;99.90
73586;DHT22;61865;50.232;18.614;2022-07-06T02:41:57;15.10;99.90
73586;DHT22;61865;50.232;18.614;2022-07-06T02:44:20;15.10;99.90
73586;DHT22;61865;50.232;18.614;2022-07-06T02:46:42;15.00;99.90
73586;DHT22;61865;50.232;18.614;2022-07-06T02:49:03;14.80;99.90
73586;DHT22;61865;50.232;18.614;2022-07-06T02:51:25;14.90;99.90
73586;DHT22;61865;50.232;18.614;2022-07-06T02:53:47;14.80;99.90
73586;DHT22;61865;50.232;18.614;2022-07-06T02:56:09;14.70;99.90
73586;DHT22;61865;50.232;18.614;2022-07-06T02:58:31;14.70;99.90
73586;DHT22;61865;50.232;18.614;2022-07-06T03:00:54;14.70;99.90
73586;DHT22;61865;50.232;18.614;2022-07-06T03:03:16;14.80;99.90
73586;DHT22;61865;50.232;18.614;2022-07-06T03:05:38;14.70;99.90
73586;DHT22;61865;50.232;18.614;2022-07-06T03:07:59;14.70;99.90
73586;DHT22;61865;50.232;18.614;2022-07-06T03:10:21;14.80;99.90
73586;DHT22;61865;50.232;18.614;2022-07-06T03:12:43;14.80;99.90
73586;DHT22;61865;50.232;18.614;2022-07-06T03:15:06;14.80;99.90
73586;DHT22;61865;50.232;18.614;2022-07-06T03:17:31;14.80;99.90
73586;DHT22;61865;50.232;18.614;2022-07-06T03:19:53;14.70;99.90
73586;DHT22;61865;50.232;18.614;2022-07-06T03:22:15;14.70;99.90
73586;DHT22;61865;50.232;18.614;2022-07-06T03:24:37;14.70;99.90
73586;DHT22;61865;50.232;18.614;2022-07-06T03:26:58;14.70;99.90
73586;DHT22;61865;50.232;18.614;2022-07-06T03:29:20;14.70;99.90
73586;DHT22;61865;50.232;18.614;2022-07-06T03:31:42;14.70;99.90
73586;DHT22;61865;50.232;18.614;2022-07-06T03:34:05;14.70;99.90
73586;DHT22;61865;50.232;18.614;2022-07-06T03:36:27;14.70;99.90
73586;DHT22;61865;50.232;18.614;2022-07-06T03:38:49;14.70;99.90
73586;DHT22;61865;50.232;18.614;2022-07-06T03:41:11;14.70;99.90
73586;DHT22;61865;50.232;18.614;2022-07-06T03:43:33;14.80;99.90
73586;DHT22;61865;50.232;18.614;2022-07-06T03:45:55;14.90;99.90
73586;DHT22;61865;50.232;18.614;2022-07-06T03:48:17;14.80;99.90
73586;DHT22;61865;50.232;18.614;2022-07-06T03:50:40;14.90;99.90
73586;DHT22;61865;50.232;18.614;2022-07-06T03:53:02;14.90;99.90
73586;DHT22;61865;50.232;18.614;2022-07-06T03:55:24;14.90;99.90
73586;DHT22;61865;50.232;18.614;2022-07-06T03:57:45;15.10;99.90
73586;DHT22;61865;50.232;18.614;2022-07-06T04:00:09;15.20;99.90
73586;DHT22;61865;50.232;18.614;2022-07-06T04:02:31;15.20;99.90
73586;DHT22;61865;50.232;18.614;2022-07-06T04:04:53;15.10;99.90
73586;DHT22;61865;50.232;18.614;2022-07-06T04:07:16;15.20;99.90
73586;DHT22;61865;50.232;18.614;2022-07-06T04:09:38;15.20;99.90
73586;DHT22;61865;50.232;18.614;2022-07-06T04:12:00;15.10;99.90
73586;DHT22;61865;50.232;18.614;2022-07-06T04:14:22;15.10;99.90
73586;DHT22;61865;50.232;18.614;2022-07-06T04:16:44;15.10;99.90
73586;DHT22;61865;50.232;18.614;2022-07-06T04:19:06;15.10;99.90
73586;DHT22;61865;50.232;18.614;2022-07-06T04:21:28;15.20;99.90
73586;DHT22;61865;50.232;18.614;2022-07-06T04:23:51;15.00;99.90
73586;DHT22;61865;50.232;18.614;2022-07-06T04:26:13;15.10;99.90
73586;DHT22;61865;50.232;18.614;2022-07-06T04:28:34;15.10;99.90
73586;DHT22;61865;50.232;18.614;2022-07-06T04:30:56;15.00;99.90
73586;DHT22;61865;50.232;18.614;2022-07-06T04:33:18;15.10;99.90
73586;DHT22;61865;50.232;18.614;2022-07-06T04:35:40;15.40;99.90
73586;DHT22;61865;50.232;18.614;2022-07-06T04:38:02;15.60;99.90
73586;DHT22;61865;50.232;18.614;2022-07-06T04:40:26;15.60;99.90
73586;DHT22;61865;50.232;18.614;2022-07-06T04:42:48;15.60;99.90
73586;DHT22;61865;50.232;18.614;2022-07-06T04:45:10;15.70;99.90
73586;DHT22;61865;50.232;18.614;2022-07-06T04:47:32;15.90;99.90
73586;DHT22;61865;50.232;18.614;2022-07-06T04:49:55;16.10;99.90
73586;DHT22;61865;50.232;18.614;2022-07-06T04:52:17;16.20;99.90
73586;DHT22;61865;50.232;18.614;2022-07-06T04:54:39;16.30;99.90
73586;DHT22;61865;50.232;18.614;2022-07-06T04:57:02;16.00;99.90
73586;DHT22;61865;50.232;18.614;2022-07-06T04:59:24;16.10;99.90
73586;DHT22;61865;50.232;18.614;2022-07-06T05:01:46;16.30;99.90
73586;DHT22;61865;50.232;18.614;2022-07-06T05:04:08;16.50;99.90
73586;DHT22;61865;50.232;18.614;2022-07-06T05:06:30;16.50;99.90
73586;DHT22;61865;50.232;18.614;2022-07-06T05:08:52;16.70;99.90
73586;DHT22;61865;50.232;18.614;2022-07-06T05:11:14;16.80;99.90
73586;DHT22;61865;50.232;18.614;2022-07-06T05:13:37;16.90;99.90
73586;DHT22;61865;50.232;18.614;2022-07-06T05:15:59;17.00;99.90
73586;DHT22;61865;50.232;18.614;2022-07-06T05:18:21;16.70;99.90
73586;DHT22;61865;50.232;18.614;2022-07-06T05:20:43;16.60;99.90
73586;DHT22;61865;50.232;18.614;2022-07-06T05:23:04;16.40;99.90
73586;DHT22;61865;50.232;18.614;2022-07-06T05:25:26;16.40;99.90
73586;DHT22;61865;50.232;18.614;2022-07-06T05:27:48;16.30;99.90
73586;DHT22;61865;50.232;18.614;2022-07-06T05:30:12;16.20;99.90
73586;DHT22;61865;50.232;18.614;2022-07-06T05:32:35;16.20;99.90
73586;DHT22;61865;50.232;18.614;2022-07-06T05:34:57;16.00;99.90
73586;DHT22;61865;50.232;18.614;2022-07-06T05:37:19;16.40;99.90
73586;DHT22;61865;50.232;18.614;2022-07-06T05:39:41;16.60;99.90
73586;DHT22;61865;50.232;18.614;2022-07-06T05:42:05;16.50;98.70
73586;DHT22;61865;50.232;18.614;2022-07-06T05:44:27;16.60;99.90
73586;DHT22;61865;50.232;18.614;2022-07-06T05:46:50;16.60;99.80
73586;DHT22;61865;50.232;18.614;2022-07-06T05:49:32;16.50;98.50
73586;DHT22;61865;50.232;18.614;2022-07-06T05:52:11;16.50;99.90
73586;DHT22;61865;50.232;18.614;2022-07-06T05:54:33;16.40;99.90
73586;DHT22;61865;50.232;18.614;2022-07-06T05:56:55;16.40;99.90
73586;DHT22;61865;50.232;18.614;2022-07-06T05:59:17;16.50;99.90
73586;DHT22;61865;50.232;18.614;2022-07-06T06:01:39;16.50;99.90
73586;DHT22;61865;50.232;18.614;2022-07-06T06:04:02;16.40;99.50
73586;DHT22;61865;50.232;18.614;2022-07-06T06:06:24;16.30;99.20
73586;DHT22;61865;50.232;18.614;2022-07-06T06:08:46;16.30;99.90
73586;DHT22;61865;50.232;18.614;2022-07-06T06:11:08;16.70;99.90
73586;DHT22;61865;50.232;18.614;2022-07-06T06:13:29;16.60;99.10
73586;DHT22;61865;50.232;18.614;2022-07-06T06:15:51;16.80;98.60
73586;DHT22;61865;50.232;18.614;2022-07-06T06:18:13;16.80;99.90
73586;DHT22;61865;50.232;18.614;2022-07-06T06:20:38;17.00;98.20
73586;DHT22;61865;50.232;18.614;2022-07-06T06:23:01;17.20;97.90
73586;DHT22;61865;50.232;18.614;2022-07-06T06:25:28;17.40;96.80
73586;DHT22;61865;50.232;18.614;2022-07-06T06:27:50;17.20;97.90
73586;DHT22;61865;50.232;18.614;2022-07-06T06:30:13;16.80;95.40
73586;DHT22;61865;50.232;18.614;2022-07-06T06:32:34;16.70;96.60
73586;DHT22;61865;50.232;18.614;2022-07-06T06:34:56;16.60;96.20
73586;DHT22;61865;50.232;18.614;2022-07-06T06:37:20;16.40;95.70
73586;DHT22;61865;50.232;18.614;2022-07-06T06:39:41;16.40;97.40
73586;DHT22;61865;50.232;18.614;2022-07-06T06:42:04;16.60;96.40
73586;DHT22;61865;50.232;18.614;2022-07-06T06:44:26;16.60;96.30
73586;DHT22;61865;50.232;18.614;2022-07-06T06:46:47;16.60;95.90
73586;DHT22;61865;50.232;18.614;2022-07-06T06:49:09;16.60;93.60
73586;DHT22;61865;50.232;18.614;2022-07-06T06:51:31;16.70;96.20
73586;DHT22;61865;50.232;18.614;2022-07-06T06:53:55;16.70;93.00
73586;DHT22;61865;50.232;18.614;2022-07-06T06:56:17;16.70;93.30
73586;DHT22;61865;50.232;18.614;2022-07-06T06:58:38;16.50;93.10
73586;DHT22;61865;50.232;18.614;2022-07-06T07:01:00;16.40;93.20
73586;DHT22;61865;50.232;18.614;2022-07-06T07:03:22;16.40;93.20
73586;DHT22;61865;50.232;18.614;2022-07-06T07:05:44;16.50;92.20
73586;DHT22;61865;50.232;18.614;2022-07-06T07:08:06;16.70;92.60
73586;DHT22;61865;50.232;18.614;2022-07-06T07:10:29;16.60;92.70
73586;DHT22;61865;50.232;18.614;2022-07-06T07:12:51;16.80;91.80
73586;DHT22;61865;50.232;18.614;2022-07-06T07:15:13;16.70;91.90
73586;DHT22;61865;50.232;18.614;2022-07-06T07:17:35;16.70;91.40
73586;DHT22;61865;50.232;18.614;2022-07-06T07:19:57;16.70;92.00
73586;DHT22;61865;50.232;18.614;2022-07-06T07:22:19;16.70;91.60
73586;DHT22;61865;50.232;18.614;2022-07-06T07:24:41;17.00;92.30
73586;DHT22;61865;50.232;18.614;2022-07-06T07:27:04;17.20;90.70
73586;DHT22;61865;50.232;18.614;2022-07-06T07:29:26;17.30;92.40
73586;DHT22;61865;50.232;18.614;2022-07-06T07:31:48;17.40;89.00
73586;DHT22;61865;50.232;18.614;2022-07-06T07:34:10;17.50;90.60
73586;DHT22;61865;50.232;18.614;2022-07-06T07:36:32;17.60;90.10
73586;DHT22;61865;50.232;18.614;2022-07-06T07:38:54;17.80;91.60
73586;DHT22;61865;50.232;18.614;2022-07-06T07:41:16;17.80;89.30
73586;DHT22;61865;50.232;18.614;2022-07-06T07:43:39;17.50;87.70
73586;DHT22;61865;50.232;18.614;2022-07-06T07:46:01;17.40;88.50
73586;DHT22;61865;50.232;18.614;2022-07-06T07:48:23;17.40;88.00
73586;DHT22;61865;50.232;18.614;2022-07-06T07:50:44;17.30;87.00
73586;DHT22;61865;50.232;18.614;2022-07-06T07:53:06;17.40;90.30
73586;DHT22;61865;50.232;18.614;2022-07-06T07:55:28;17.40;90.10
73586;DHT22;61865;50.232;18.614;2022-07-06T07:57:50;17.40;88.20
73586;DHT22;61865;50.232;18.614;2022-07-06T08:00:14;17.30;88.20
73586;DHT22;61865;50.232;18.614;2022-07-06T08:02:36;17.10;87.50
73586;DHT22;61865;50.232;18.614;2022-07-06T08:04:57;17.20;89.10
73586;DHT22;61865;50.232;18.614;2022-07-06T08:07:19;17.20;86.50
73586;DHT22;61865;50.232;18.614;2022-07-06T08:09:41;17.20;90.60
73586;DHT22;61865;50.232;18.614;2022-07-06T08:12:04;17.50;87.50
73586;DHT22;61865;50.232;18.614;2022-07-06T08:14:26;17.30;88.70
73586;DHT22;61865;50.232;18.614;2022-07-06T08:16:49;17.40;87.70
73586;DHT22;61865;50.232;18.614;2022-07-06T08:19:11;17.40;86.90
73586;DHT22;61865;50.232;18.614;2022-07-06T08:21:35;17.30;87.90
73586;DHT22;61865;50.232;18.614;2022-07-06T08:23:57;17.30;88.00
73586;DHT22;61865;50.232;18.614;2022-07-06T08:26:21;17.30;86.80
73586;DHT22;61865;50.232;18.614;2022-07-06T08:28:43;17.60;87.50
73586;DHT22;61865;50.232;18.614;2022-07-06T08:31:05;17.60;85.80
73586;DHT22;61865;50.232;18.614;2022-07-06T08:33:28;17.80;88.10
73586;DHT22;61865;50.232;18.614;2022-07-06T08:35:50;17.70;85.90
73586;DHT22;61865;50.232;18.614;2022-07-06T08:38:12;17.50;85.90
73586;DHT22;61865;50.232;18.614;2022-07-06T08:40:34;17.60;88.60
73586;DHT22;61865;50.232;18.614;2022-07-06T08:42:57;17.80;88.70
73586;DHT22;61865;50.232;18.614;2022-07-06T08:45:21;17.90;86.30
73586;DHT22;61865;50.232;18.614;2022-07-06T08:47:43;17.90;84.40
73586;DHT22;61865;50.232;18.614;2022-07-06T08:50:07;18.10;85.10
73586;DHT22;61865;50.232;18.614;2022-07-06T08:52:31;18.40;83.30
73586;DHT22;61865;50.232;18.614;2022-07-06T08:54:53;18.30;80.60
73586;DHT22;61865;50.232;18.614;2022-07-06T08:57:16;18.20;83.70
73586;DHT22;61865;50.232;18.614;2022-07-06T08:59:38;18.40;83.30
73586;DHT22;61865;50.232;18.614;2022-07-06T09:02:01;18.50;80.90
73586;DHT22;61865;50.232;18.614;2022-07-06T09:04:25;18.60;81.00
73586;DHT22;61865;50.232;18.614;2022-07-06T09:06:49;18.80;80.80
73586;DHT22;61865;50.232;18.614;2022-07-06T09:09:17;18.70;76.90
73586;DHT22;61865;50.232;18.614;2022-07-06T09:11:40;18.90;80.30
73586;DHT22;61865;50.232;18.614;2022-07-06T09:14:02;18.90;75.20
73586;DHT22;61865;50.232;18.614;2022-07-06T09:16:26;19.10;77.60
73586;DHT22;61865;50.232;18.614;2022-07-06T09:18:49;19.40;75.10
73586;DHT22;61865;50.232;18.614;2022-07-06T09:21:11;19.00;75.00
73586;DHT22;61865;50.232;18.614;2022-07-06T09:23:35;19.00;76.60
73586;DHT22;61865;50.232;18.614;2022-07-06T09:25:58;19.20;77.00
73586;DHT22;61865;50.232;18.614;2022-07-06T09:28:19;19.30;72.80
73586;DHT22;61865;50.232;18.614;2022-07-06T09:30:41;19.00;72.50
73586;DHT22;61865;50.232;18.614;2022-07-06T09:33:04;19.30;73.70
73586;DHT22;61865;50.232;18.614;2022-07-06T09:35:31;19.50;72.20
73586;DHT22;61865;50.232;18.614;2022-07-06T09:38:04;19.40;73.00
73586;DHT22;61865;50.232;18.614;2022-07-06T09:40:28;19.40;73.60
73586;DHT22;61865;50.232;18.614;2022-07-06T09:42:51;19.20;73.50
73586;DHT22;61865;50.232;18.614;2022-07-06T09:45:20;19.20;69.00
73586;DHT22;61865;50.232;18.614;2022-07-06T09:47:46;19.10;74.10
73586;DHT22;61865;50.232;18.614;2022-07-06T09:50:08;19.10;71.80
73586;DHT22;61865;50.232;18.614;2022-07-06T09:52:33;19.20;71.70
73586;DHT22;61865;50.232;18.614;2022-07-06T09:54:55;19.30;71.70
73586;DHT22;61865;50.232;18.614;2022-07-06T09:57:21;19.40;73.50
73586;DHT22;61865;50.232;18.614;2022-07-06T09:59:50;19.60;73.80
73586;DHT22;61865;50.232;18.614;2022-07-06T10:02:12;19.60;72.80
73586;DHT22;61865;50.232;18.614;2022-07-06T10:04:35;19.70;74.10
73586;DHT22;61865;50.232;18.614;2022-07-06T10:06:58;19.70;72.20
73586;DHT22;61865;50.232;18.614;2022-07-06T10:09:21;19.50;72.50
73586;DHT22;61865;50.232;18.614;2022-07-06T10:11:47;19.70;79.80
73586;DHT22;61865;50.232;18.614;2022-07-06T10:14:12;19.90;76.80
73586;DHT22;61865;50.232;18.614;2022-07-06T10:16:37;20.00;74.10
73586;DHT22;61865;50.232;18.614;2022-07-06T10:19:00;20.10;73.20
73586;DHT22;61865;50.232;18.614;2022-07-06T10:21:23;20.40;73.30
73586;DHT22;61865;50.232;18.614;2022-07-06T10:23:45;20.00;74.50
73586;DHT22;61865;50.232;18.614;2022-07-06T10:26:08;19.90;75.20
73586;DHT22;61865;50.232;18.614;2022-07-06T10:28:31;19.80;70.70
73586;DHT22;61865;50.232;18.614;2022-07-06T10:30:54;20.00;74.20
73586;DHT22;61865;50.232;18.614;2022-07-06T10:33:17;19.80;72.90
73586;DHT22;61865;50.232;18.614;2022-07-06T10:35:40;19.90;72.80
73586;DHT22;61865;50.232;18.614;2022-07-06T10:38:05;19.80;71.10
73586;DHT22;61865;50.232;18.614;2022-07-06T10:40:32;19.60;73.20
73586;DHT22;61865;50.232;18.614;2022-07-06T10:43:12;19.50;73.10
73586;DHT22;61865;50.232;18.614;2022-07-06T10:45:51;19.70;68.50
73586;DHT22;61865;50.232;18.614;2022-07-06T10:48:19;19.70;68.30
73586;DHT22;61865;50.232;18.614;2022-07-06T10:50:46;19.90;67.10
73586;DHT22;61865;50.232;18.614;2022-07-06T10:53:10;20.30;69.90
73586;DHT22;61865;50.232;18.614;2022-07-06T10:55:34;20.30;66.50
73586;DHT22;61865;50.232;18.614;2022-07-06T10:57:56;20.30;67.80
73586;DHT22;61865;50.232;18.614;2022-07-06T11:00:18;20.40;66.70
73586;DHT22;61865;50.232;18.614;2022-07-06T11:02:41;20.50;67.30
73586;DHT22;61865;50.232;18.614;2022-07-06T11:05:10;20.60;60.80
73586;DHT22;61865;50.232;18.614;2022-07-06T11:07:48;20.80;66.30
73586;DHT22;61865;50.232;18.614;2022-07-06T11:10:11;21.00;65.40
73586;DHT22;61865;50.232;18.614;2022-07-06T11:12:35;20.80;68.80
73586;DHT22;61865;50.232;18.614;2022-07-06T11:14:57;21.10;67.70
73586;DHT22;61865;50.232;18.614;2022-07-06T11:17:22;21.40;65.20
73586;DHT22;61865;50.232;18.614;2022-07-06T11:19:52;21.00;66.50
73586;DHT22;61865;50.232;18.614;2022-07-06T11:22:18;21.20;67.20
73586;DHT22;61865;50.232;18.614;2022-07-06T11:24:41;21.50;63.90
73586;DHT22;61865;50.232;18.614;2022-07-06T11:27:04;21.10;63.00
73586;DHT22;61865;50.232;18.614;2022-07-06T11:29:28;21.00;66.20
73586;DHT22;61865;50.232;18.614;2022-07-06T11:31:51;21.00;63.60
73586;DHT22;61865;50.232;18.614;2022-07-06T11:34:21;20.90;61.50
73586;DHT22;61865;50.232;18.614;2022-07-06T11:36:43;20.90;62.40
73586;DHT22;61865;50.232;18.614;2022-07-06T11:39:06;20.60;61.60
73586;DHT22;61865;50.232;18.614;2022-07-06T11:41:28;21.10;65.60
73586;DHT22;61865;50.232;18.614;2022-07-06T11:43:50;21.90;64.80
73586;DHT22;61865;50.232;18.614;2022-07-06T11:46:23;21.70;59.90
73586;DHT22;61865;50.232;18.614;2022-07-06T11:48:46;21.60;62.00
73586;DHT22;61865;50.232;18.614;2022-07-06T11:51:08;21.90;61.00
73586;DHT22;61865;50.232;18.614;2022-07-06T11:53:30;21.80;60.50
73586;DHT22;61865;50.232;18.614;2022-07-06T11:55:53;21.30;63.30
73586;DHT22;61865;50.232;18.614;2022-07-06T11:58:17;20.70;66.70
73586;DHT22;61865;50.232;18.614;2022-07-06T12:00:40;20.50;67.60
73586;DHT22;61865;50.232;18.614;2022-07-06T12:03:02;20.60;68.70
73586;DHT22;61865;50.232;18.614;2022-07-06T12:05:29;20.40;68.10
73586;DHT22;61865;50.232;18.614;2022-07-06T12:08:04;20.20;68.10
73586;DHT22;61865;50.232;18.614;2022-07-06T12:10:31;20.30;67.50
73586;DHT22;61865;50.232;18.614;2022-07-06T12:13:03;20.30;68.40
73586;DHT22;61865;50.232;18.614;2022-07-06T12:15:26;20.30;66.10
73586;DHT22;61865;50.232;18.614;2022-07-06T12:17:48;20.30;67.10
73586;DHT22;61865;50.232;18.614;2022-07-06T12:20:10;20.40;65.30
73586;DHT22;61865;50.232;18.614;2022-07-06T12:22:32;20.60;63.50
73586;DHT22;61865;50.232;18.614;2022-07-06T12:24:54;20.80;62.20
73586;DHT22;61865;50.232;18.614;2022-07-06T12:27:17;21.10;64.30
73586;DHT22;61865;50.232;18.614;2022-07-06T12:29:41;21.30;61.10
73586;DHT22;61865;50.232;18.614;2022-07-06T12:32:04;21.50;58.60
73586;DHT22;61865;50.232;18.614;2022-07-06T12:34:27;21.40;60.10
73586;DHT22;61865;50.232;18.614;2022-07-06T12:36:52;21.50;57.60
73586;DHT22;61865;50.232;18.614;2022-07-06T12:39:15;21.30;58.40
73586;DHT22;61865;50.232;18.614;2022-07-06T12:41:38;21.60;58.70
73586;DHT22;61865;50.232;18.614;2022-07-06T12:44:08;21.70;56.90
73586;DHT22;61865;50.232;18.614;2022-07-06T12:46:33;22.00;58.40
73586;DHT22;61865;50.232;18.614;2022-07-06T12:48:56;22.20;58.20
73586;DHT22;61865;50.232;18.614;2022-07-06T12:51:18;22.10;56.90
73586;DHT22;61865;50.232;18.614;2022-07-06T12:53:40;22.10;55.50
73586;DHT22;61865;50.232;18.614;2022-07-06T12:56:08;22.40;56.10
73586;DHT22;61865;50.232;18.614;2022-07-06T12:58:30;22.20;56.20
73586;DHT22;61865;50.232;18.614;2022-07-06T13:00:52;22.00;56.90
73586;DHT22;61865;50.232;18.614;2022-07-06T13:03:15;21.80;57.10
73586;DHT22;61865;50.232;18.614;2022-07-06T13:05:37;22.00;56.40
73586;DHT22;61865;50.232;18.614;2022-07-06T13:07:59;22.20;57.70
73586;DHT22;61865;50.232;18.614;2022-07-06T13:10:23;22.60;55.00
73586;DHT22;61865;50.232;18.614;2022-07-06T13:12:45;22.90;53.20
73586;DHT22;61865;50.232;18.614;2022-07-06T13:15:08;23.20;57.40
73586;DHT22;61865;50.232;18.614;2022-07-06T13:17:30;23.40;50.90
73586;DHT22;61865;50.232;18.614;2022-07-06T13:19:54;23.10;54.50
73586;DHT22;61865;50.232;18.614;2022-07-06T13:22:16;22.60;50.10
73586;DHT22;61865;50.232;18.614;2022-07-06T13:24:38;22.80;50.90
73586;DHT22;61865;50.232;18.614;2022-07-06T13:27:00;22.40;49.80
73586;DHT22;61865;50.232;18.614;2022-07-06T13:29:22;22.50;50.70
73586;DHT22;61865;50.232;18.614;2022-07-06T13:31:44;22.80;50.60
73586;DHT22;61865;50.232;18.614;2022-07-06T13:34:06;22.80;51.80
73586;DHT22;61865;50.232;18.614;2022-07-06T13:36:30;22.70;51.60
73586;DHT22;61865;50.232;18.614;2022-07-06T13:38:51;22.70;51.80
73586;DHT22;61865;50.232;18.614;2022-07-06T13:41:13;22.80;52.90
73586;DHT22;61865;50.232;18.614;2022-07-06T13:43:35;22.80;53.30
73586;DHT22;61865;50.232;18.614;2022-07-06T13:45:57;22.70;49.20
73586;DHT22;61865;50.232;18.614;2022-07-06T13:48:19;22.60;50.70
73586;DHT22;61865;50.232;18.614;2022-07-06T13:50:41;22.40;51.20
73586;DHT22;61865;50.232;18.614;2022-07-06T13:53:04;22.30;51.10
73586;DHT22;61865;50.232;18.614;2022-07-06T13:55:26;22.40;50.70
73586;DHT22;61865;50.232;18.614;2022-07-06T13:57:48;22.60;49.70
73586;DHT22;61865;50.232;18.614;2022-07-06T14:00:10;22.70;50.00
73586;DHT22;61865;50.232;18.614;2022-07-06T14:02:32;22.70;53.40
73586;DHT22;61865;50.232;18.614;2022-07-06T14:04:54;22.90;51.90
73586;DHT22;61865;50.232;18.614;2022-07-06T14:07:16;22.80;51.10
73586;DHT22;61865;50.232;18.614;2022-07-06T14:09:39;22.70;50.40
73586;DHT22;61865;50.232;18.614;2022-07-06T14:12:01;22.80;50.40
73586;DHT22;61865;50.232;18.614;2022-07-06T14:14:23;22.90;50.30
73586;DHT22;61865;50.232;18.614;2022-07-06T14:16:45;22.50;47.00
73586;DHT22;61865;50.232;18.614;2022-07-06T14:19:07;22.50;48.10
73586;DHT22;61865;50.232;18.614;2022-07-06T14:21:29;22.60;47.30
73586;DHT22;61865;50.232;18.614;2022-07-06T14:23:51;22.80;48.30
73586;DHT22;61865;50.232;18.614;2022-07-06T14:26:14;22.80;48.90
73586;DHT22;61865;50.232;18.614;2022-07-06T14:28:36;22.80;49.30
73586;DHT22;61865;50.232;18.614;2022-07-06T14:30:58;22.70;46.70
73586;DHT22;61865;50.232;18.614;2022-07-06T14:33:22;22.50;50.20
73586;DHT22;61865;50.232;18.614;2022-07-06T14:35:45;22.50;46.50
73586;DHT22;61865;50.232;18.614;2022-07-06T14:38:08;22.70;49.60
73586;DHT22;61865;50.232;18.614;2022-07-06T14:40:30;22.90;48.40
73586;DHT22;61865;50.232;18.614;2022-07-06T14:42:54;22.70;47.90
73586;DHT22;61865;50.232;18.614;2022-07-06T14:45:16;22.90;49.30
73586;DHT22;61865;50.232;18.614;2022-07-06T14:47:38;22.90;47.10